sensor_id;sensor_type;location;lat;lon;timestamp;pressure;altitude;pressure_sealevel;temperature;humidity
50550;BME280;36505;52.512;13.460;2023-03-03T00:01:35;101820.84;;;0.24;82.37
50550;BME280;36505;52.512;13.460;2023-03-03T00:04:01;101825.72;;;0.20;82.48
50550;BME280;36505;52.512;13.460;2023-03-03T00:06:26;101825.53;;;0.22;82.83
50550;BME280;36505;52.512;13.460;2023-03-03T00:08:54;101824.69;;;0.21;82.91
50550;BME280;36505;52.512;13.460;2023-03-03T00:11:19;101822.69;;;0.23;83.01
50550;BME280;36505;52.512;13.460;2023-03-03T00:13:50;101834.19;;;0.25;82.93
50550;BME280;36505;52.512;13.460;2023-03-03T00:16:28;101822.94;;;0.30;83.33
50550;BME280;36505;52.512;13.460;2023-03-03T00:18:55;101821.09;;;0.30;83.06
50550;BME280;36505;52.512;13.460;2023-03-03T00:21:39;101819.78;;;0.34;82.87
50550;BME280;36505;52.512;13.460;2023-03-03T00:24:24;101827.72;;;0.36;82.52
50550;BME280;36505;52.512;13.460;2023-03-03T00:26:54;101804.06;;;0.30;82.59
50550;BME280;36505;52.512;13.460;2023-03-03T00:34:41;101801.41;;;0.48;82.62
50550;BME280;36505;52.512;13.460;2023-03-03T00:37:24;101795.84;;;0.49;82.75
50550;BME280;36505;52.512;13.460;2023-03-03T00:39:51;101798.72;;;0.48;82.45
50550;BME280;36505;52.512;13.460;2023-03-03T00:42:17;101814.91;;;0.48;82.28
50550;BME280;36505;52.512;13.460;2023-03-03T00:44:47;101796.31;;;0.45;82.41
50550;BME280;36505;52.512;13.460;2023-03-03T00:49:52;101776.75;;;0.43;82.38
50550;BME280;36505;52.512;13.460;2023-03-03T00:52:18;101784.22;;;0.49;82.33
50550;BME280;36505;52.512;13.460;2023-03-03T00:54:44;101782.69;;;0.46;82.12
50550;BME280;36505;52.512;13.460;2023-03-03T00:57:10;101784.84;;;0.43;82.15
50550;BME280;36505;52.512;13.460;2023-03-03T00:59:37;101788.63;;;0.50;82.32
50550;BME280;36505;52.512;13.460;2023-03-03T01:02:02;101777.47;;;0.45;82.23
50550;BME280;36505;52.512;13.460;2023-03-03T01:04:27;101788.38;;;0.43;82.24
50550;BME280;36505;52.512;13.460;2023-03-03T01:06:53;101766.91;;;0.33;82.20
50550;BME280;36505;52.512;13.460;2023-03-03T01:09:18;101770.84;;;0.39;82.67
50550;BME280;36505;52.512;13.460;2023-03-03T01:11:44;101779.59;;;0.41;82.52
50550;BME280;36505;52.512;13.460;2023-03-03T01:14:09;101774.63;;;0.46;82.28
50550;BME280;36505;52.512;13.460;2023-03-03T01:16:35;101777.00;;;0.49;82.58
50550;BME280;36505;52.512;13.460;2023-03-03T01:19:00;101778.84;;;0.49;82.15
50550;BME280;36505;52.512;13.460;2023-03-03T01:21:25;101763.28;;;0.43;82.49
50550;BME280;36505;52.512;13.460;2023-03-03T01:23:51;101765.91;;;0.52;82.42
50550;BME280;36505;52.512;13.460;2023-03-03T01:26:16;101762.91;;;0.55;82.60
50550;BME280;36505;52.512;13.460;2023-03-03T01:28:42;101752.97;;;0.56;82.19
50550;BME280;36505;52.512;13.460;2023-03-03T01:31:07;101765.00;;;0.61;82.24
50550;BME280;36505;52.512;13.460;2023-03-03T01:33:34;101758.06;;;0.59;82.42
50550;BME280;36505;52.512;13.460;2023-03-03T01:36:00;101751.19;;;0.64;82.17
50550;BME280;36505;52.512;13.460;2023-03-03T01:38:25;101753.75;;;0.66;82.17
50550;BME280;36505;52.512;13.460;2023-03-03T01:40:58;101743.47;;;0.69;82.19
50550;BME280;36505;52.512;13.460;2023-03-03T01:43:28;101750.97;;;0.58;81.95
50550;BME280;36505;52.512;13.460;2023-03-03T01:48:29;101734.06;;;0.48;82.08
50550;BME280;36505;52.512;13.460;2023-03-03T01:51:18;101742.19;;;0.56;82.63
50550;BME280;36505;52.512;13.460;2023-03-03T01:53:49;101738.19;;;0.60;82.66
50550;BME280;36505;52.512;13.460;2023-03-03T01:56:15;101721.25;;;0.50;82.60
50550;BME280;36505;52.512;13.460;2023-03-03T01:58:54;101740.19;;;0.58;82.66
50550;BME280;36505;52.512;13.460;2023-03-03T02:01:25;101739.91;;;0.61;82.50
50550;BME280;36505;52.512;13.460;2023-03-03T02:03:51;101722.31;;;0.57;82.26
50550;BME280;36505;52.512;13.460;2023-03-03T02:06:21;101729.63;;;0.64;82.55
50550;BME280;36505;52.512;13.460;2023-03-03T02:08:56;101744.94;;;0.64;82.55
50550;BME280;36505;52.512;13.460;2023-03-03T02:11:24;101736.50;;;0.59;82.42
50550;BME280;36505;52.512;13.460;2023-03-03T02:13:51;101760.13;;;0.65;82.42
50550;BME280;36505;52.512;13.460;2023-03-03T02:16:17;101745.81;;;0.64;82.06
50550;BME280;36505;52.512;13.460;2023-03-03T02:18:42;101749.50;;;0.63;82.10
50550;BME280;36505;52.512;13.460;2023-03-03T02:21:14;101748.66;;;0.63;82.50
50550;BME280;36505;52.512;13.460;2023-03-03T02:24:08;101751.75;;;0.68;82.10
50550;BME280;36505;52.512;13.460;2023-03-03T02:26:39;101748.34;;;0.66;81.94
50550;BME280;36505;52.512;13.460;2023-03-03T02:29:05;101755.97;;;0.70;82.15
50550;BME280;36505;52.512;13.460;2023-03-03T02:31:31;101756.81;;;0.71;81.80
50550;BME280;36505;52.512;13.460;2023-03-03T02:33:58;101759.56;;;0.79;81.90
50550;BME280;36505;52.512;13.460;2023-03-03T02:36:27;101753.50;;;0.77;82.05
50550;BME280;36505;52.512;13.460;2023-03-03T02:39:26;101743.88;;;0.74;81.79
50550;BME280;36505;52.512;13.460;2023-03-03T02:44:26;101746.41;;;0.76;82.16
50550;BME280;36505;52.512;13.460;2023-03-03T02:46:53;101750.50;;;0.80;82.17
50550;BME280;36505;52.512;13.460;2023-03-03T02:49:22;101752.19;;;0.81;82.13
50550;BME280;36505;52.512;13.460;2023-03-03T02:51:48;101736.94;;;0.72;81.84
50550;BME280;36505;52.512;13.460;2023-03-03T02:54:15;101744.56;;;0.76;81.74
50550;BME280;36505;52.512;13.460;2023-03-03T02:56:41;101744.88;;;0.73;81.97
50550;BME280;36505;52.512;13.460;2023-03-03T02:59:07;101737.72;;;0.64;82.03
50550;BME280;36505;52.512;13.460;2023-03-03T03:01:33;101751.97;;;0.74;82.32
50550;BME280;36505;52.512;13.460;2023-03-03T03:04:12;101760.56;;;0.78;82.17
50550;BME280;36505;52.512;13.460;2023-03-03T03:06:38;101728.63;;;0.65;82.06
50550;BME280;36505;52.512;13.460;2023-03-03T03:09:05;101759.88;;;0.76;82.08
50550;BME280;36505;52.512;13.460;2023-03-03T03:11:31;101749.78;;;0.78;82.07
50550;BME280;36505;52.512;13.460;2023-03-03T03:13:56;101753.63;;;0.75;81.92
50550;BME280;36505;52.512;13.460;2023-03-03T03:16:22;101765.25;;;0.76;82.09
50550;BME280;36505;52.512;13.460;2023-03-03T03:18:47;101769.66;;;0.77;81.83
50550;BME280;36505;52.512;13.460;2023-03-03T03:21:15;101775.75;;;0.79;81.78
50550;BME280;36505;52.512;13.460;2023-03-03T03:23:40;101772.69;;;0.74;82.23
50550;BME280;36505;52.512;13.460;2023-03-03T03:26:07;101783.84;;;0.79;82.10
50550;BME280;36505;52.512;13.460;2023-03-03T03:28:33;101789.94;;;0.81;82.00
50550;BME280;36505;52.512;13.460;2023-03-03T03:30:58;101770.28;;;0.71;82.11
50550;BME280;36505;52.512;13.460;2023-03-03T03:33:24;101783.16;;;0.77;82.05
50550;BME280;36505;52.512;13.460;2023-03-03T03:35:50;101778.94;;;0.74;81.99
50550;BME280;36505;52.512;13.460;2023-03-03T03:38:15;101795.94;;;0.75;82.26
50550;BME280;36505;52.512;13.460;2023-03-03T03:40:41;101786.59;;;0.69;82.19
50550;BME280;36505;52.512;13.460;2023-03-03T03:43:07;101780.59;;;0.75;82.26
50550;BME280;36505;52.512;13.460;2023-03-03T03:45:32;101756.72;;;0.63;82.31
50550;BME280;36505;52.512;13.460;2023-03-03T03:47:58;101764.38;;;0.67;82.36
50550;BME280;36505;52.512;13.460;2023-03-03T03:50:24;101761.13;;;0.64;82.34
50550;BME280;36505;52.512;13.460;2023-03-03T03:52:49;101767.91;;;0.68;82.65
50550;BME280;36505;52.512;13.460;2023-03-03T03:55:15;101766.22;;;0.67;82.43
50550;BME280;36505;52.512;13.460;2023-03-03T03:57:41;101760.13;;;0.65;82.42
50550;BME280;36505;52.512;13.460;2023-03-03T04:00:08;101754.25;;;0.69;82.44
50550;BME280;36505;52.512;13.460;2023-03-03T04:02:34;101747.88;;;0.70;82.78
50550;BME280;36505;52.512;13.460;2023-03-03T04:05:00;101755.97;;;0.70;82.70
50550;BME280;36505;52.512;13.460;2023-03-03T04:07:25;101755.44;;;0.67;82.51
50550;BME280;36505;52.512;13.460;2023-03-03T04:09:51;101740.19;;;0.58;82.72
50550;BME280;36505;52.512;13.460;2023-03-03T04:12:17;101743.88;;;0.57;82.71
50550;BME280;36505;52.512;13.460;2023-03-03T04:14:42;101723.56;;;0.45;82.95
50550;BME280;36505;52.512;13.460;2023-03-03T04:17:14;101731.72;;;0.53;83.11
50550;BME280;36505;52.512;13.460;2023-03-03T04:19:40;101741.88;;;0.59;82.96
50550;BME280;36505;52.512;13.460;2023-03-03T04:22:05;101746.44;;;0.58;82.92
50550;BME280;36505;52.512;13.460;2023-03-03T04:24:31;101742.19;;;0.56;82.76
50550;BME280;36505;52.512;13.460;2023-03-03T04:26:56;101732.72;;;0.52;82.83
50550;BME280;36505;52.512;13.460;2023-03-03T04:29:21;101733.97;;;0.39;82.78
50550;BME280;36505;52.512;13.460;2023-03-03T04:31:47;101743.28;;;0.45;82.90
50550;BME280;36505;52.512;13.460;2023-03-03T04:34:12;101730.09;;;0.42;83.33
50550;BME280;36505;52.512;13.460;2023-03-03T04:36:37;101737.19;;;0.43;83.12
50550;BME280;36505;52.512;13.460;2023-03-03T04:39:03;101735.50;;;0.42;83.21
50550;BME280;36505;52.512;13.460;2023-03-03T04:41:28;101727.25;;;0.44;83.13
50550;BME280;36505;52.512;13.460;2023-03-03T04:43:53;101724.47;;;0.35;83.58
50550;BME280;36505;52.512;13.460;2023-03-03T04:46:19;101731.72;;;0.35;83.20
50550;BME280;36505;52.512;13.460;2023-03-03T04:48:44;101734.97;;;0.38;83.27
50550;BME280;36505;52.512;13.460;2023-03-03T04:51:10;101737.97;;;0.35;83.17
50550;BME280;36505;52.512;13.460;2023-03-03T04:53:35;101735.25;;;0.35;83.33
50550;BME280;36505;52.512;13.460;2023-03-03T04:56:02;101737.28;;;0.33;83.40
50550;BME280;36505;52.512;13.460;2023-03-03T04:58:29;101738.56;;;0.29;83.47
50550;BME280;36505;52.512;13.460;2023-03-03T05:00:55;101735.25;;;0.35;84.05
50550;BME280;36505;52.512;13.460;2023-03-03T05:03:22;101742.69;;;0.33;83.88
50550;BME280;36505;52.512;13.460;2023-03-03T05:05:47;101735.50;;;0.24;83.84
50550;BME280;36505;52.512;13.460;2023-03-03T05:08:13;101742.59;;;0.25;83.93
50550;BME280;36505;52.512;13.460;2023-03-03T05:10:38;101722.78;;;0.17;84.08
50550;BME280;36505;52.512;13.460;2023-03-03T05:13:04;101733.88;;;0.31;83.75
50550;BME280;36505;52.512;13.460;2023-03-03T05:15:30;101740.28;;;0.30;83.74
50550;BME280;36505;52.512;13.460;2023-03-03T05:17:56;101726.41;;;0.25;83.11
50550;BME280;36505;52.512;13.460;2023-03-03T05:20:22;101715.28;;;0.20;83.11
50550;BME280;36505;52.512;13.460;2023-03-03T05:22:47;101721.47;;;0.21;83.27
50550;BME280;36505;52.512;13.460;2023-03-03T05:25:13;101731.44;;;0.20;83.11
50550;BME280;36505;52.512;13.460;2023-03-03T05:27:38;101729.56;;;0.21;83.76
50550;BME280;36505;52.512;13.460;2023-03-03T05:30:04;101732.25;;;0.21;83.42
50550;BME280;36505;52.512;13.460;2023-03-03T05:32:30;101734.94;;;0.21;83.08
50550;BME280;36505;52.512;13.460;2023-03-03T05:34:57;101740.50;;;0.19;83.23
50550;BME280;36505;52.512;13.460;2023-03-03T05:37:22;101737.09;;;0.17;83.52
50550;BME280;36505;52.512;13.460;2023-03-03T05:39:48;101739.44;;;0.12;83.38
50550;BME280;36505;52.512;13.460;2023-03-03T05:42:14;101758.19;;;0.22;83.35
50550;BME280;36505;52.512;13.460;2023-03-03T05:44:39;101760.78;;;0.14;83.31
50550;BME280;36505;52.512;13.460;2023-03-03T05:47:05;101756.56;;;0.11;82.90
50550;BME280;36505;52.512;13.460;2023-03-03T05:49:30;101768.88;;;0.14;83.07
50550;BME280;36505;52.512;13.460;2023-03-03T05:51:56;101765.66;;;0.10;82.89
50550;BME280;36505;52.512;13.460;2023-03-03T05:54:21;101769.34;;;0.09;83.14
50550;BME280;36505;52.512;13.460;2023-03-03T05:56:46;101761.56;;;0.06;83.39
50550;BME280;36505;52.512;13.460;2023-03-03T05:59:12;101764.50;;;0.13;83.20
50550;BME280;36505;52.512;13.460;2023-03-03T06:01:37;101760.25;;;0.10;83.61
50550;BME280;36505;52.512;13.460;2023-03-03T06:04:03;101764.91;;;0.18;83.45
50550;BME280;36505;52.512;13.460;2023-03-03T06:06:28;101772.28;;;0.16;83.65
50550;BME280;36505;52.512;13.460;2023-03-03T06:08:54;101762.81;;;0.12;84.06
50550;BME280;36505;52.512;13.460;2023-03-03T06:11:19;101763.19;;;0.17;84.02
50550;BME280;36505;52.512;13.460;2023-03-03T06:13:45;101769.72;;;0.14;84.06
50550;BME280;36505;52.512;13.460;2023-03-03T06:16:10;101754.59;;;0.13;83.90
50550;BME280;36505;52.512;13.460;2023-03-03T06:18:35;101760.50;;;0.17;83.99
50550;BME280;36505;52.512;13.460;2023-03-03T06:21:01;101743.88;;;0.04;84.00
50550;BME280;36505;52.512;13.460;2023-03-03T06:23:26;101768.88;;;0.14;83.86
50550;BME280;36505;52.512;13.460;2023-03-03T06:25:52;101786.44;;;0.18;83.82
50550;BME280;36505;52.512;13.460;2023-03-03T06:28:18;101785.88;;;0.14;83.74
50550;BME280;36505;52.512;13.460;2023-03-03T06:30:43;101766.88;;;-0.02;83.44
50550;BME280;36505;52.512;13.460;2023-03-03T06:33:09;101765.88;;;-0.01;83.98
50550;BME280;36505;52.512;13.460;2023-03-03T06:35:34;101777.75;;;0.06;83.63
50550;BME280;36505;52.512;13.460;2023-03-03T06:37:59;101755.72;;;-0.07;83.63
50550;BME280;36505;52.512;13.460;2023-03-03T06:40:25;101779.41;;;0.07;83.54
50550;BME280;36505;52.512;13.460;2023-03-03T06:42:50;101786.34;;;0.10;83.85
50550;BME280;36505;52.512;13.460;2023-03-03T06:45:16;101767.84;;;-0.03;84.09
50550;BME280;36505;52.512;13.460;2023-03-03T06:47:42;101780.44;;;0.06;84.03
50550;BME280;36505;52.512;13.460;2023-03-03T06:50:09;101776.31;;;0.02;83.69
50550;BME280;36505;52.512;13.460;2023-03-03T06:52:35;101791.88;;;0.08;83.70
50550;BME280;36505;52.512;13.460;2023-03-03T06:55:09;101796.34;;;-0.01;83.86
50550;BME280;36505;52.512;13.460;2023-03-03T06:57:36;101812.75;;;0.06;84.03
50550;BME280;36505;52.512;13.460;2023-03-03T07:02:36;101813.75;;;0.05;83.75
50550;BME280;36505;52.512;13.460;2023-03-03T07:05:06;101812.75;;;0.06;83.16
50550;BME280;36505;52.512;13.460;2023-03-03T07:07:35;101825.03;;;0.09;83.68
50550;BME280;36505;52.512;13.460;2023-03-03T07:10:00;101804.25;;;0.01;83.44
50550;BME280;36505;52.512;13.460;2023-03-03T07:12:31;101811.72;;;0.07;83.21
50550;BME280;36505;52.512;13.460;2023-03-03T07:15:21;101823.53;;;0.06;83.35
50550;BME280;36505;52.512;13.460;2023-03-03T07:17:49;101831.00;;;0.12;84.06
50550;BME280;36505;52.512;13.460;2023-03-03T07:20:18;101829.16;;;0.13;83.92
50550;BME280;36505;52.512;13.460;2023-03-03T07:22:45;101829.81;;;0.15;83.99
50550;BME280;36505;52.512;13.460;2023-03-03T07:25:30;101818.53;;;0.11;84.05
50550;BME280;36505;52.512;13.460;2023-03-03T07:28:00;101836.47;;;0.20;83.95
50550;BME280;36505;52.512;13.460;2023-03-03T07:30:35;101815.69;;;0.13;84.21
50550;BME280;36505;52.512;13.460;2023-03-03T07:33:00;101831.09;;;0.20;84.41
50550;BME280;36505;52.512;13.460;2023-03-03T07:35:36;101839.00;;;0.22;84.20
50550;BME280;36505;52.512;13.460;2023-03-03T07:38:15;101833.63;;;0.22;84.19
50550;BME280;36505;52.512;13.460;2023-03-03T07:40:55;101832.16;;;0.27;84.31
50550;BME280;36505;52.512;13.460;2023-03-03T07:46:35;101836.41;;;0.30;83.94
50550;BME280;36505;52.512;13.460;2023-03-03T07:49:20;101852.81;;;0.36;83.87
50550;BME280;36505;52.512;13.460;2023-03-03T07:51:46;101852.88;;;0.27;83.85
50550;BME280;36505;52.512;13.460;2023-03-03T07:54:37;101852.09;;;0.34;83.77
50550;BME280;36505;52.512;13.460;2023-03-03T07:59:44;101847.56;;;0.35;83.83
50550;BME280;36505;52.512;13.460;2023-03-03T08:04:48;101850.50;;;0.42;83.92
50550;BME280;36505;52.512;13.460;2023-03-03T08:07:19;101849.50;;;0.43;83.65
50550;BME280;36505;52.512;13.460;2023-03-03T08:09:50;101837.34;;;0.38;83.83
50550;BME280;36505;52.512;13.460;2023-03-03T08:17:43;101843.84;;;0.46;83.44
50550;BME280;36505;52.512;13.460;2023-03-03T08:22:54;101835.00;;;0.53;83.27
50550;BME280;36505;52.512;13.460;2023-03-03T08:25:19;101834.53;;;0.58;83.27
50550;BME280;36505;52.512;13.460;2023-03-03T08:27:45;101837.44;;;0.64;83.22
50550;BME280;36505;52.512;13.460;2023-03-03T08:30:11;101835.31;;;0.68;82.84
50550;BME280;36505;52.512;13.460;2023-03-03T08:32:36;101847.00;;;0.76;83.06
50550;BME280;36505;52.512;13.460;2023-03-03T08:35:01;101834.75;;;0.82;82.77
50550;BME280;36505;52.512;13.460;2023-03-03T08:37:27;101814.28;;;0.71;82.59
50550;BME280;36505;52.512;13.460;2023-03-03T08:39:52;101845.47;;;0.92;82.37
50550;BME280;36505;52.512;13.460;2023-03-03T08:42:18;101856.09;;;0.93;82.24
50550;BME280;36505;52.512;13.460;2023-03-03T08:44:43;101833.44;;;0.86;82.03
50550;BME280;36505;52.512;13.460;2023-03-03T08:47:09;101850.09;;;0.99;81.77
50550;BME280;36505;52.512;13.460;2023-03-03T08:49:34;101850.47;;;1.04;81.78
50550;BME280;36505;52.512;13.460;2023-03-03T08:51:59;101838.28;;;1.00;81.53
50550;BME280;36505;52.512;13.460;2023-03-03T08:54:25;101855.44;;;1.17;81.39
50550;BME280;36505;52.512;13.460;2023-03-03T08:56:50;101854.81;;;1.23;81.21
50550;BME280;36505;52.512;13.460;2023-03-03T08:59:16;101847.75;;;1.22;81.15
50550;BME280;36505;52.512;13.460;2023-03-03T09:01:41;101853.16;;;1.22;81.21
50550;BME280;36505;52.512;13.460;2023-03-03T09:04:09;101846.28;;;1.28;80.96
50550;BME280;36505;52.512;13.460;2023-03-03T09:06:34;101838.81;;;1.22;80.90
50550;BME280;36505;52.512;13.460;2023-03-03T09:09:00;101842.78;;;1.35;80.85
50550;BME280;36505;52.512;13.460;2023-03-03T09:11:27;101835.75;;;1.42;80.68
50550;BME280;36505;52.512;13.460;2023-03-03T09:14:10;101831.88;;;1.45;80.10
50550;BME280;36505;52.512;13.460;2023-03-03T09:16:52;101826.19;;;1.48;79.69
50550;BME280;36505;52.512;13.460;2023-03-03T09:21:54;101814.25;;;1.58;79.05
50550;BME280;36505;52.512;13.460;2023-03-03T09:24:28;101822.94;;;1.70;78.81
50550;BME280;36505;52.512;13.460;2023-03-03T09:26:54;101839.56;;;1.83;78.97
50550;BME280;36505;52.512;13.460;2023-03-03T09:29:30;101826.56;;;1.87;79.13
50550;BME280;36505;52.512;13.460;2023-03-03T09:32:36;101844.50;;;1.96;78.59
50550;BME280;36505;52.512;13.460;2023-03-03T09:40:54;101851.41;;;1.90;77.90
50550;BME280;36505;52.512;13.460;2023-03-03T09:43:39;101853.47;;;1.96;77.80
50550;BME280;36505;52.512;13.460;2023-03-03T09:48:50;101852.31;;;2.07;77.87
50550;BME280;36505;52.512;13.460;2023-03-03T09:51:40;101850.34;;;2.17;77.22
50550;BME280;36505;52.512;13.460;2023-03-03T09:54:21;101846.13;;;2.23;76.99
50550;BME280;36505;52.512;13.460;2023-03-03T10:00:02;101846.84;;;2.41;76.72
50550;BME280;36505;52.512;13.460;2023-03-03T10:02:47;101843.69;;;2.46;76.60
50550;BME280;36505;52.512;13.460;2023-03-03T10:11:07;101845.75;;;2.68;75.94
50550;BME280;36505;52.512;13.460;2023-03-03T10:36:21;101835.31;;;2.97;74.79
50550;BME280;36505;52.512;13.460;2023-03-03T10:39:28;101835.47;;;3.04;74.33
50550;BME280;36505;52.512;13.460;2023-03-03T10:50:47;101841.06;;;3.18;73.18
50550;BME280;36505;52.512;13.460;2023-03-03T10:53:31;101814.84;;;3.11;73.99
50550;BME280;36505;52.512;13.460;2023-03-03T10:59:00;101846.13;;;3.46;72.81
50550;BME280;36505;52.512;13.460;2023-03-03T11:04:42;101833.75;;;3.35;72.66
50550;BME280;36505;52.512;13.460;2023-03-03T11:12:46;101837.47;;;3.50;72.85
50550;BME280;36505;52.512;13.460;2023-03-03T11:29:06;101840.31;;;3.73;72.27
50550;BME280;36505;52.512;13.460;2023-03-03T11:32:36;101803.13;;;3.51;72.22
50550;BME280;36505;52.512;13.460;2023-03-03T11:37:34;101822.03;;;3.75;72.11
50550;BME280;36505;52.512;13.460;2023-03-03T11:40:11;101823.84;;;3.83;72.42
50550;BME280;36505;52.512;13.460;2023-03-03T11:43:09;101827.22;;;3.93;72.35
50550;BME280;36505;52.512;13.460;2023-03-03T11:45:44;101813.50;;;3.94;72.27
50550;BME280;36505;52.512;13.460;2023-03-03T11:51:05;101813.44;;;4.03;72.00
50550;BME280;36505;52.512;13.460;2023-03-03T12:13:37;101791.81;;;4.25;71.49
50550;BME280;36505;52.512;13.460;2023-03-03T12:16:14;101787.97;;;4.20;71.75
50550;BME280;36505;52.512;13.460;2023-03-03T12:27:10;101767.84;;;4.37;71.29
50550;BME280;36505;52.512;13.460;2023-03-03T12:29:41;101768.19;;;4.42;71.38
50550;BME280;36505;52.512;13.460;2023-03-03T12:32:28;101761.22;;;4.40;71.51
50550;BME280;36505;52.512;13.460;2023-03-03T12:40:19;101750.81;;;4.51;71.02
50550;BME280;36505;52.512;13.460;2023-03-03T12:42:54;101762.44;;;4.60;71.20
50550;BME280;36505;52.512;13.460;2023-03-03T12:50:47;101765.09;;;4.68;70.99
50550;BME280;36505;52.512;13.460;2023-03-03T12:56:06;101750.03;;;4.65;70.75
50550;BME280;36505;52.512;13.460;2023-03-03T12:59:04;101748.22;;;4.58;71.16
50550;BME280;36505;52.512;13.460;2023-03-03T13:01:51;101744.41;;;4.44;71.31
50550;BME280;36505;52.512;13.460;2023-03-03T13:14:50;101732.91;;;4.65;71.67
50550;BME280;36505;52.512;13.460;2023-03-03T13:22:44;101730.50;;;4.70;71.28
50550;BME280;36505;52.512;13.460;2023-03-03T13:25:30;101730.50;;;4.70;71.44
50550;BME280;36505;52.512;13.460;2023-03-03T13:28:02;101716.50;;;4.58;71.06
50550;BME280;36505;52.512;13.460;2023-03-03T13:30:37;101734.25;;;4.69;71.74
50550;BME280;36505;52.512;13.460;2023-03-03T13:33:25;101731.03;;;4.65;71.75
50550;BME280;36505;52.512;13.460;2023-03-03T13:36:10;101727.19;;;4.60;71.63
50550;BME280;36505;52.512;13.460;2023-03-03T13:38:49;101709.78;;;4.54;71.90
50550;BME280;36505;52.512;13.460;2023-03-03T13:41:34;101723.63;;;4.59;71.77
50550;BME280;36505;52.512;13.460;2023-03-03T13:46:39;101707.63;;;4.50;71.82
50550;BME280;36505;52.512;13.460;2023-03-03T14:11:09;101696.78;;;4.87;71.41
50550;BME280;36505;52.512;13.460;2023-03-03T14:16:54;101693.69;;;4.90;71.32
50550;BME280;36505;52.512;13.460;2023-03-03T14:35:23;101668.97;;;4.70;71.54
50550;BME280;36505;52.512;13.460;2023-03-03T14:37:50;101667.38;;;4.76;71.51
50550;BME280;36505;52.512;13.460;2023-03-03T14:40:21;101671.09;;;4.75;71.17
50550;BME280;36505;52.512;13.460;2023-03-03T14:47:56;101663.53;;;4.85;71.08
50550;BME280;36505;52.512;13.460;2023-03-03T14:50:36;101656.34;;;4.78;71.35
50550;BME280;36505;52.512;13.460;2023-03-03T14:55:46;101658.50;;;4.82;71.34
50550;BME280;36505;52.512;13.460;2023-03-03T14:58:35;101651.84;;;4.85;71.47
50550;BME280;36505;52.512;13.460;2023-03-03T15:01:07;101647.25;;;4.85;71.62
50550;BME280;36505;52.512;13.460;2023-03-03T15:03:34;101648.94;;;4.86;71.54
50550;BME280;36505;52.512;13.460;2023-03-03T15:06:10;101639.00;;;4.78;71.42
50550;BME280;36505;52.512;13.460;2023-03-03T15:08:41;101653.91;;;4.83;71.54
50550;BME280;36505;52.512;13.460;2023-03-03T15:13:37;101629.00;;;4.79;72.01
50550;BME280;36505;52.512;13.460;2023-03-03T15:16:09;101650.28;;;4.90;72.15
50550;BME280;36505;52.512;13.460;2023-03-03T15:18:52;101643.63;;;4.93;72.00
50550;BME280;36505;52.512;13.460;2023-03-03T15:21:24;101642.78;;;4.92;71.83
50550;BME280;36505;52.512;13.460;2023-03-03T15:24:15;101607.00;;;4.74;71.93
50550;BME280;36505;52.512;13.460;2023-03-03T15:26:55;101633.59;;;4.93;71.87
50550;BME280;36505;52.512;13.460;2023-03-03T15:29:48;101637.56;;;4.91;71.72
50550;BME280;36505;52.512;13.460;2023-03-03T15:34:57;101610.41;;;4.76;72.48
50550;BME280;36505;52.512;13.460;2023-03-03T15:40:33;101632.94;;;4.76;72.61
50550;BME280;36505;52.512;13.460;2023-03-03T15:43:09;101629.38;;;4.76;72.34
50550;BME280;36505;52.512;13.460;2023-03-03T15:48:48;101619.63;;;4.67;73.16
50550;BME280;36505;52.512;13.460;2023-03-03T15:56:47;101622.59;;;4.57;73.34
50550;BME280;36505;52.512;13.460;2023-03-03T15:59:42;101616.53;;;4.55;73.27
50550;BME280;36505;52.512;13.460;2023-03-03T16:02:20;101606.59;;;4.48;73.24
50550;BME280;36505;52.512;13.460;2023-03-03T16:05:02;101605.94;;;4.46;72.99
50550;BME280;36505;52.512;13.460;2023-03-03T16:11:00;101598.34;;;4.41;73.71
50550;BME280;36505;52.512;13.460;2023-03-03T16:16:46;101605.25;;;4.44;73.48
50550;BME280;36505;52.512;13.460;2023-03-03T16:19:38;101598.81;;;4.45;73.66
50550;BME280;36505;52.512;13.460;2023-03-03T16:27:51;101597.00;;;4.37;73.58
50550;BME280;36505;52.512;13.460;2023-03-03T16:33:33;101587.47;;;4.26;73.67
50550;BME280;36505;52.512;13.460;2023-03-03T16:38:52;101580.13;;;4.12;74.34
50550;BME280;36505;52.512;13.460;2023-03-03T16:41:41;101591.25;;;4.17;74.52
50550;BME280;36505;52.512;13.460;2023-03-03T16:46:45;101594.69;;;4.11;74.49
50550;BME280;36505;52.512;13.460;2023-03-03T16:49:32;101589.16;;;4.05;75.06
50550;BME280;36505;52.512;13.460;2023-03-03T16:52:16;101578.22;;;3.98;75.43
50550;BME280;36505;52.512;13.460;2023-03-03T16:54:56;101573.69;;;3.90;75.37
50550;BME280;36505;52.512;13.460;2023-03-03T16:57:43;101582.31;;;3.94;75.98
50550;BME280;36505;52.512;13.460;2023-03-03T17:03:19;101589.66;;;3.85;75.70
50550;BME280;36505;52.512;13.460;2023-03-03T17:05:56;101589.34;;;3.80;76.24
50550;BME280;36505;52.512;13.460;2023-03-03T17:11:26;101590.59;;;3.70;76.33
50550;BME280;36505;52.512;13.460;2023-03-03T17:16:58;101581.88;;;3.60;77.01
50550;BME280;36505;52.512;13.460;2023-03-03T17:22:28;101578.91;;;3.46;77.65
50550;BME280;36505;52.512;13.460;2023-03-03T17:25:14;101578.41;;;3.43;77.84
50550;BME280;36505;52.512;13.460;2023-03-03T17:30:38;101579.97;;;3.37;78.14
50550;BME280;36505;52.512;13.460;2023-03-03T17:33:29;101588.44;;;3.34;78.23
50550;BME280;36505;52.512;13.460;2023-03-03T17:39:11;101585.44;;;3.21;79.26
50550;BME280;36505;52.512;13.460;2023-03-03T17:41:57;101581.25;;;3.18;79.04
50550;BME280;36505;52.512;13.460;2023-03-03T17:44:49;101580.41;;;3.18;78.79
50550;BME280;36505;52.512;13.460;2023-03-03T17:47:42;101579.72;;;3.16;78.70
50550;BME280;36505;52.512;13.460;2023-03-03T18:06:45;101578.53;;;3.49;79.93